Historique des mesures à Cassis (13260), France
Quotidien Résumé Mai 16, 2018 Unités:  Métrique    US   Métrique/US
« Précédent (Jour)
Suivant (Jour) »
Quotidien Hebdomadaire Mensuel Annuel Période au choix
  Maximum: Minimum: Moyenne:
Température: TemperatureC °C 12.5 °C 16.6 °C
Point de rosée: DewpointC °C 9.1 °C 11.5 °C
Humidité: Humidity % 60 % 68 %
Vitesse du vent: 0 km/h 0 km/h 3.5 km/h
Rafales: 0 km/h - -
Vent:- - SSE
Pression: PressurehPa hPa 1009.4 hPa -
Précipitations: 0.0 mm    
Historical Graphs
 
 
Mesures pour : Mai 16, 2018
Heure Temperature Point de rosée Pression Vent Vitesse du vent Rafales Humidité Pluie (par heure) Conditions
TemperatureC °C DewpointC °C PressurehPa hPa Calm     Humidity % HourlyPrecipMM mm SoftwareType W/m2
00:12 15.7 °C 10.9 °C 1009.4 hPa NE 5.1 km/h 5.1 km/h 73 % 0.0 mm open2300-1.11 W/m2
01:11 15.0 °C 10.6 °C 1009.7 hPa Calm     75 % 0.0 mm open2300-1.11 W/m2
02:11 14.2 °C 10.2 °C 1009.4 hPa Calm     77 % 0.0 mm open2300-1.11 W/m2
03:11 13.6 °C 10.0 °C 1009.4 hPa Calm     79 % 0.0 mm open2300-1.11 W/m2
04:11 13.2 °C 9.6 °C 1009.4 hPa North 1.8 km/h 5.6 km/h 79 % 0.0 mm open2300-1.11 W/m2
05:11 12.7 °C 9.1 °C 1009.4 hPa Calm     79 % 0.0 mm open2300-1.11 W/m2
06:10 12.5 °C 9.3 °C 1009.4 hPa NW 3.4 km/h 18.7 km/h 81 % 0.0 mm open2300-1.11 W/m2
07:10 12.9 °C 9.7 °C 1009.7 hPa Calm   8 km/h 81 % 0.0 mm open2300-1.11 W/m2
08:10 15.6 °C 11.6 °C 1010.0 hPa Calm   5.6 km/h 77 % 0.0 mm open2300-1.11 W/m2
09:10 15.9 °C 11.7 °C 1010.4 hPa ESE 4.2 km/h 4.2 km/h 76 % 0.0 mm open2300-1.11 W/m2
10:10 16.4 °C 11.8 °C 1010.4 hPa Calm   3.4 km/h 74 % 0.0 mm open2300-1.11 W/m2
11:10 21.3 °C 14.4 °C 1010.7 hPa SE 9.8 km/h 9.8 km/h 65 % 0.0 mm open2300-1.11 W/m2
12:10 20.4 °C 13.6 °C 1011.4 hPa ESE 5.6 km/h 8 km/h 65 % 0.0 mm open2300-1.11 W/m2
13:10 22.3 °C 14.2 °C 1011.4 hPa SE 7.6 km/h 8 km/h 60 % 0.0 mm open2300-1.11 W/m2
14:10 21.1 °C 13.3 °C 1011.1 hPa SSW 8.9 km/h 8.9 km/h 61 % 0.0 mm open2300-1.11 W/m2
15:10 22.2 °C 14.1 °C 1011.1 hPa ESE 4.7 km/h 7.6 km/h 60 % 0.0 mm open2300-1.11 W/m2
16:12 21.8 °C 13.7 °C 1010.7 hPa ESE 11.6 km/h 17.9 km/h 60 % 0.0 mm open2300-1.11 W/m2
17:11 21.1 °C 13.6 °C 1010.0 hPa SSE 6.9 km/h 7.6 km/h 62 % 0.0 mm open2300-1.11 W/m2
18:11 20.6 °C 13.5 °C 1009.7 hPa South 10.3 km/h 10.3 km/h 64 % 0.0 mm open2300-1.11 W/m2
19:11 19.6 °C 13.1 °C 1009.7 hPa SSE 6.4 km/h 6.4 km/h 66 % 0.0 mm open2300-1.11 W/m2
20:11 18.6 °C 12.8 °C 1009.7 hPa Calm     69 % 0.0 mm open2300-1.11 W/m2
21:12 17.3 °C 12.4 °C 1010.4 hPa Calm     73 % 0.0 mm open2300-1.11 W/m2
22:11 16.6 °C 11.9 °C 1010.4 hPa Calm     74 % 0.0 mm open2300-1.11 W/m2
23:11 15.6 °C 11.4 °C 1010.7 hPa NNW 1.8 km/h 1.8 km/h 76 % 0.0 mm open2300-1.11 W/m2
Observations météo à CASSIS
WU-History script by Weather Underground - 1 mb